sensor_id;sensor_type;location;lat;lon;timestamp;P1;durP1;ratioP1;P2;durP2;ratioP2
68250;SDS011;55066;51.560;4.642;2023-03-01T00:01:09;15.10;;;6.70;;
68250;SDS011;55066;51.560;4.642;2023-03-01T00:03:39;13.60;;;6.35;;
68250;SDS011;55066;51.560;4.642;2023-03-01T00:06:07;14.48;;;6.18;;
68250;SDS011;55066;51.560;4.642;2023-03-01T00:08:34;14.20;;;6.57;;
68250;SDS011;55066;51.560;4.642;2023-03-01T00:11:04;15.32;;;6.57;;
68250;SDS011;55066;51.560;4.642;2023-03-01T00:13:39;16.17;;;7.20;;
68250;SDS011;55066;51.560;4.642;2023-03-01T00:16:06;20.35;;;7.40;;
68250;SDS011;55066;51.560;4.642;2023-03-01T00:18:33;19.13;;;7.83;;
68250;SDS011;55066;51.560;4.642;2023-03-01T00:20:59;16.80;;;6.90;;
68250;SDS011;55066;51.560;4.642;2023-03-01T00:23:25;17.23;;;6.60;;
68250;SDS011;55066;51.560;4.642;2023-03-01T00:25:51;17.15;;;6.68;;
68250;SDS011;55066;51.560;4.642;2023-03-01T00:28:17;18.77;;;7.60;;
68250;SDS011;55066;51.560;4.642;2023-03-01T00:30:43;18.30;;;7.55;;
68250;SDS011;55066;51.560;4.642;2023-03-01T00:33:09;16.85;;;7.15;;
68250;SDS011;55066;51.560;4.642;2023-03-01T00:35:34;20.65;;;8.20;;
68250;SDS011;55066;51.560;4.642;2023-03-01T00:38:00;19.03;;;7.77;;
68250;SDS011;55066;51.560;4.642;2023-03-01T00:40:29;16.17;;;7.60;;
68250;SDS011;55066;51.560;4.642;2023-03-01T00:42:57;16.25;;;7.18;;
68250;SDS011;55066;51.560;4.642;2023-03-01T00:45:23;15.47;;;7.23;;
68250;SDS011;55066;51.560;4.642;2023-03-01T00:47:49;17.17;;;7.40;;
68250;SDS011;55066;51.560;4.642;2023-03-01T00:50:15;16.85;;;7.85;;
68250;SDS011;55066;51.560;4.642;2023-03-01T00:52:40;17.70;;;7.22;;
68250;SDS011;55066;51.560;4.642;2023-03-01T00:55:09;20.00;;;8.10;;
68250;SDS011;55066;51.560;4.642;2023-03-01T00:57:35;18.73;;;7.35;;
68250;SDS011;55066;51.560;4.642;2023-03-01T01:00:01;22.90;;;7.83;;
68250;SDS011;55066;51.560;4.642;2023-03-01T01:02:29;17.52;;;7.50;;
68250;SDS011;55066;51.560;4.642;2023-03-01T01:04:54;19.77;;;7.13;;
68250;SDS011;55066;51.560;4.642;2023-03-01T01:07:20;20.35;;;7.50;;
68250;SDS011;55066;51.560;4.642;2023-03-01T01:09:49;20.30;;;7.83;;
68250;SDS011;55066;51.560;4.642;2023-03-01T01:12:15;16.55;;;7.35;;
68250;SDS011;55066;51.560;4.642;2023-03-01T01:14:41;23.47;;;7.83;;
68250;SDS011;55066;51.560;4.642;2023-03-01T01:17:08;19.23;;;8.45;;
68250;SDS011;55066;51.560;4.642;2023-03-01T01:19:33;16.07;;;7.37;;
68250;SDS011;55066;51.560;4.642;2023-03-01T01:21:59;16.20;;;7.50;;
68250;SDS011;55066;51.560;4.642;2023-03-01T01:24:25;15.03;;;6.33;;
68250;SDS011;55066;51.560;4.642;2023-03-01T01:26:51;18.05;;;7.55;;
68250;SDS011;55066;51.560;4.642;2023-03-01T01:29:16;17.23;;;7.77;;
68250;SDS011;55066;51.560;4.642;2023-03-01T01:31:42;18.45;;;7.95;;
68250;SDS011;55066;51.560;4.642;2023-03-01T01:34:11;18.33;;;8.40;;
68250;SDS011;55066;51.560;4.642;2023-03-01T01:36:39;19.85;;;7.47;;
68250;SDS011;55066;51.560;4.642;2023-03-01T01:39:04;17.90;;;7.43;;
68250;SDS011;55066;51.560;4.642;2023-03-01T01:41:30;17.58;;;7.35;;
68250;SDS011;55066;51.560;4.642;2023-03-01T01:44:11;19.55;;;7.78;;
68250;SDS011;55066;51.560;4.642;2023-03-01T01:47:01;19.02;;;7.53;;
68250;SDS011;55066;51.560;4.642;2023-03-01T01:49:38;16.23;;;7.28;;
68250;SDS011;55066;51.560;4.642;2023-03-01T01:57:35;19.58;;;7.82;;
68250;SDS011;55066;51.560;4.642;2023-03-01T02:00:09;18.58;;;7.70;;
68250;SDS011;55066;51.560;4.642;2023-03-01T02:02:38;18.73;;;8.00;;
68250;SDS011;55066;51.560;4.642;2023-03-01T02:05:09;18.93;;;7.60;;
68250;SDS011;55066;51.560;4.642;2023-03-01T02:07:40;19.33;;;8.00;;
68250;SDS011;55066;51.560;4.642;2023-03-01T02:10:08;21.35;;;8.10;;
68250;SDS011;55066;51.560;4.642;2023-03-01T02:12:34;17.52;;;7.32;;
68250;SDS011;55066;51.560;4.642;2023-03-01T02:15:00;18.00;;;7.60;;
68250;SDS011;55066;51.560;4.642;2023-03-01T02:17:26;19.90;;;8.53;;
68250;SDS011;55066;51.560;4.642;2023-03-01T02:24:59;18.40;;;8.33;;
68250;SDS011;55066;51.560;4.642;2023-03-01T02:27:41;19.77;;;7.45;;
68250;SDS011;55066;51.560;4.642;2023-03-01T02:30:16;17.67;;;7.35;;
68250;SDS011;55066;51.560;4.642;2023-03-01T02:32:43;19.15;;;7.95;;
68250;SDS011;55066;51.560;4.642;2023-03-01T02:35:10;18.37;;;7.97;;
68250;SDS011;55066;51.560;4.642;2023-03-01T02:37:41;18.23;;;7.68;;
68250;SDS011;55066;51.560;4.642;2023-03-01T02:40:08;21.92;;;8.43;;
68250;SDS011;55066;51.560;4.642;2023-03-01T02:42:40;19.92;;;7.68;;
68250;SDS011;55066;51.560;4.642;2023-03-01T02:45:14;17.73;;;8.10;;
68250;SDS011;55066;51.560;4.642;2023-03-01T02:47:41;20.00;;;7.70;;
68250;SDS011;55066;51.560;4.642;2023-03-01T02:55:20;20.13;;;7.97;;
68250;SDS011;55066;51.560;4.642;2023-03-01T02:57:46;19.20;;;7.50;;
68250;SDS011;55066;51.560;4.642;2023-03-01T03:00:19;21.67;;;8.00;;
68250;SDS011;55066;51.560;4.642;2023-03-01T03:02:48;19.48;;;7.82;;
68250;SDS011;55066;51.560;4.642;2023-03-01T03:05:23;19.80;;;9.00;;
68250;SDS011;55066;51.560;4.642;2023-03-01T03:07:53;21.02;;;8.65;;
68250;SDS011;55066;51.560;4.642;2023-03-01T03:10:23;23.10;;;8.95;;
68250;SDS011;55066;51.560;4.642;2023-03-01T03:13:01;21.65;;;8.65;;
68250;SDS011;55066;51.560;4.642;2023-03-01T03:15:29;20.90;;;8.40;;
68250;SDS011;55066;51.560;4.642;2023-03-01T03:17:56;21.60;;;9.30;;
68250;SDS011;55066;51.560;4.642;2023-03-01T03:20:25;20.85;;;8.60;;
68250;SDS011;55066;51.560;4.642;2023-03-01T03:22:53;24.50;;;9.93;;
68250;SDS011;55066;51.560;4.642;2023-03-01T03:25:20;20.48;;;8.55;;
68250;SDS011;55066;51.560;4.642;2023-03-01T03:27:49;21.42;;;8.73;;
68250;SDS011;55066;51.560;4.642;2023-03-01T03:30:22;21.30;;;7.72;;
68250;SDS011;55066;51.560;4.642;2023-03-01T03:32:50;18.92;;;8.00;;
68250;SDS011;55066;51.560;4.642;2023-03-01T03:35:21;20.87;;;8.73;;
68250;SDS011;55066;51.560;4.642;2023-03-01T03:37:53;20.70;;;7.80;;
68250;SDS011;55066;51.560;4.642;2023-03-01T03:43:07;21.63;;;7.93;;
68250;SDS011;55066;51.560;4.642;2023-03-01T03:45:34;18.35;;;7.88;;
68250;SDS011;55066;51.560;4.642;2023-03-01T03:48:01;22.87;;;7.70;;
68250;SDS011;55066;51.560;4.642;2023-03-01T03:50:30;20.13;;;8.70;;
68250;SDS011;55066;51.560;4.642;2023-03-01T03:53:01;20.60;;;7.95;;
68250;SDS011;55066;51.560;4.642;2023-03-01T03:55:29;20.00;;;8.13;;
68250;SDS011;55066;51.560;4.642;2023-03-01T03:57:59;18.30;;;8.05;;
68250;SDS011;55066;51.560;4.642;2023-03-01T04:00:32;20.00;;;8.47;;
68250;SDS011;55066;51.560;4.642;2023-03-01T04:02:59;21.45;;;8.00;;
68250;SDS011;55066;51.560;4.642;2023-03-01T04:05:26;17.85;;;7.85;;
68250;SDS011;55066;51.560;4.642;2023-03-01T04:07:54;19.25;;;8.02;;
68250;SDS011;55066;51.560;4.642;2023-03-01T04:10:29;23.13;;;7.60;;
68250;SDS011;55066;51.560;4.642;2023-03-01T04:12:56;20.73;;;7.73;;
68250;SDS011;55066;51.560;4.642;2023-03-01T04:15:23;18.98;;;7.88;;
68250;SDS011;55066;51.560;4.642;2023-03-01T04:17:52;19.42;;;8.05;;
68250;SDS011;55066;51.560;4.642;2023-03-01T04:20:22;20.27;;;8.00;;
68250;SDS011;55066;51.560;4.642;2023-03-01T04:22:51;21.75;;;8.23;;
68250;SDS011;55066;51.560;4.642;2023-03-01T04:25:20;20.63;;;8.20;;
68250;SDS011;55066;51.560;4.642;2023-03-01T04:27:51;17.65;;;7.40;;
68250;SDS011;55066;51.560;4.642;2023-03-01T04:30:16;18.90;;;7.65;;
68250;SDS011;55066;51.560;4.642;2023-03-01T04:32:42;19.40;;;7.30;;
68250;SDS011;55066;51.560;4.642;2023-03-01T04:35:08;17.95;;;7.60;;
68250;SDS011;55066;51.560;4.642;2023-03-01T04:37:34;16.30;;;6.60;;
68250;SDS011;55066;51.560;4.642;2023-03-01T04:40:04;18.27;;;7.47;;
68250;SDS011;55066;51.560;4.642;2023-03-01T04:42:41;18.45;;;7.55;;
68250;SDS011;55066;51.560;4.642;2023-03-01T04:45:07;17.35;;;7.25;;
68250;SDS011;55066;51.560;4.642;2023-03-01T04:47:43;17.67;;;7.03;;
68250;SDS011;55066;51.560;4.642;2023-03-01T04:50:16;20.17;;;7.35;;
68250;SDS011;55066;51.560;4.642;2023-03-01T04:52:46;17.07;;;6.73;;
68250;SDS011;55066;51.560;4.642;2023-03-01T04:55:14;18.02;;;7.70;;
68250;SDS011;55066;51.560;4.642;2023-03-01T04:57:40;20.70;;;8.10;;
68250;SDS011;55066;51.560;4.642;2023-03-01T05:00:09;22.17;;;7.60;;
68250;SDS011;55066;51.560;4.642;2023-03-01T05:02:46;16.92;;;6.78;;
68250;SDS011;55066;51.560;4.642;2023-03-01T05:05:33;17.13;;;7.50;;
68250;SDS011;55066;51.560;4.642;2023-03-01T05:08:07;19.45;;;7.57;;
68250;SDS011;55066;51.560;4.642;2023-03-01T05:10:48;19.20;;;7.43;;
68250;SDS011;55066;51.560;4.642;2023-03-01T05:13:28;18.35;;;7.10;;
68250;SDS011;55066;51.560;4.642;2023-03-01T05:19:23;14.87;;;5.73;;
68250;SDS011;55066;51.560;4.642;2023-03-01T05:22:04;16.85;;;6.82;;
68250;SDS011;55066;51.560;4.642;2023-03-01T05:24:34;17.95;;;7.32;;
68250;SDS011;55066;51.560;4.642;2023-03-01T05:27:12;15.32;;;6.07;;
68250;SDS011;55066;51.560;4.642;2023-03-01T05:33:03;22.03;;;7.30;;
68250;SDS011;55066;51.560;4.642;2023-03-01T05:35:39;18.20;;;7.10;;
68250;SDS011;55066;51.560;4.642;2023-03-01T05:38:12;19.10;;;6.43;;
68250;SDS011;55066;51.560;4.642;2023-03-01T05:40:44;14.15;;;5.82;;
68250;SDS011;55066;51.560;4.642;2023-03-01T05:43:16;17.33;;;6.65;;
68250;SDS011;55066;51.560;4.642;2023-03-01T05:45:44;16.20;;;6.43;;
68250;SDS011;55066;51.560;4.642;2023-03-01T05:48:11;16.02;;;6.88;;
68250;SDS011;55066;51.560;4.642;2023-03-01T05:50:41;19.83;;;6.47;;
68250;SDS011;55066;51.560;4.642;2023-03-01T05:53:16;15.48;;;6.28;;
68250;SDS011;55066;51.560;4.642;2023-03-01T05:55:42;21.10;;;6.75;;
68250;SDS011;55066;51.560;4.642;2023-03-01T05:58:12;17.13;;;6.77;;
68250;SDS011;55066;51.560;4.642;2023-03-01T06:00:40;17.48;;;6.82;;
68250;SDS011;55066;51.560;4.642;2023-03-01T06:03:05;17.15;;;7.10;;
68250;SDS011;55066;51.560;4.642;2023-03-01T06:05:31;16.20;;;6.27;;
68250;SDS011;55066;51.560;4.642;2023-03-01T06:08:00;15.40;;;5.87;;
68250;SDS011;55066;51.560;4.642;2023-03-01T06:10:26;16.00;;;6.22;;
68250;SDS011;55066;51.560;4.642;2023-03-01T06:12:52;18.42;;;5.68;;
68250;SDS011;55066;51.560;4.642;2023-03-01T06:15:18;16.05;;;6.45;;
68250;SDS011;55066;51.560;4.642;2023-03-01T06:17:44;14.97;;;5.43;;
68250;SDS011;55066;51.560;4.642;2023-03-01T06:20:12;15.75;;;5.95;;
68250;SDS011;55066;51.560;4.642;2023-03-01T06:22:39;13.65;;;5.57;;
68250;SDS011;55066;51.560;4.642;2023-03-01T06:25:06;16.60;;;5.63;;
68250;SDS011;55066;51.560;4.642;2023-03-01T06:27:32;17.67;;;5.68;;
68250;SDS011;55066;51.560;4.642;2023-03-01T06:30:00;15.20;;;6.18;;
68250;SDS011;55066;51.560;4.642;2023-03-01T06:32:26;16.38;;;6.40;;
68250;SDS011;55066;51.560;4.642;2023-03-01T06:34:51;18.13;;;5.80;;
68250;SDS011;55066;51.560;4.642;2023-03-01T06:37:17;17.67;;;6.40;;
68250;SDS011;55066;51.560;4.642;2023-03-01T06:39:42;18.97;;;6.83;;
68250;SDS011;55066;51.560;4.642;2023-03-01T06:42:08;16.27;;;6.00;;
68250;SDS011;55066;51.560;4.642;2023-03-01T06:44:37;16.40;;;6.23;;
68250;SDS011;55066;51.560;4.642;2023-03-01T06:47:03;13.27;;;5.57;;
68250;SDS011;55066;51.560;4.642;2023-03-01T06:49:29;16.02;;;5.65;;
68250;SDS011;55066;51.560;4.642;2023-03-01T06:51:55;17.20;;;6.77;;
68250;SDS011;55066;51.560;4.642;2023-03-01T06:54:21;16.05;;;6.40;;
68250;SDS011;55066;51.560;4.642;2023-03-01T06:56:49;16.42;;;6.70;;
68250;SDS011;55066;51.560;4.642;2023-03-01T06:59:16;13.85;;;6.30;;
68250;SDS011;55066;51.560;4.642;2023-03-01T07:01:42;16.67;;;6.40;;
68250;SDS011;55066;51.560;4.642;2023-03-01T07:04:09;18.00;;;6.73;;
68250;SDS011;55066;51.560;4.642;2023-03-01T07:06:37;15.13;;;6.30;;
68250;SDS011;55066;51.560;4.642;2023-03-01T07:09:03;17.88;;;7.10;;
68250;SDS011;55066;51.560;4.642;2023-03-01T07:11:28;18.00;;;6.67;;
68250;SDS011;55066;51.560;4.642;2023-03-01T07:13:54;17.90;;;6.57;;
68250;SDS011;55066;51.560;4.642;2023-03-01T07:16:20;17.95;;;7.32;;
68250;SDS011;55066;51.560;4.642;2023-03-01T07:18:46;24.65;;;7.60;;
68250;SDS011;55066;51.560;4.642;2023-03-01T07:21:14;18.27;;;7.53;;
68250;SDS011;55066;51.560;4.642;2023-03-01T07:23:40;16.98;;;7.10;;
68250;SDS011;55066;51.560;4.642;2023-03-01T07:26:08;20.33;;;7.43;;
68250;SDS011;55066;51.560;4.642;2023-03-01T07:28:34;19.08;;;7.80;;
68250;SDS011;55066;51.560;4.642;2023-03-01T07:31:04;17.47;;;7.07;;
68250;SDS011;55066;51.560;4.642;2023-03-01T07:33:30;20.73;;;7.25;;
68250;SDS011;55066;51.560;4.642;2023-03-01T07:35:56;19.63;;;7.60;;
68250;SDS011;55066;51.560;4.642;2023-03-01T07:38:25;19.90;;;8.00;;
68250;SDS011;55066;51.560;4.642;2023-03-01T07:40:53;18.58;;;7.28;;
68250;SDS011;55066;51.560;4.642;2023-03-01T07:43:19;19.98;;;7.32;;
68250;SDS011;55066;51.560;4.642;2023-03-01T07:45:45;19.00;;;7.63;;
68250;SDS011;55066;51.560;4.642;2023-03-01T07:48:11;18.13;;;7.50;;
68250;SDS011;55066;51.560;4.642;2023-03-01T07:50:37;18.80;;;7.07;;
68250;SDS011;55066;51.560;4.642;2023-03-01T07:53:03;16.92;;;7.20;;
68250;SDS011;55066;51.560;4.642;2023-03-01T07:55:29;23.20;;;8.10;;
68250;SDS011;55066;51.560;4.642;2023-03-01T07:57:56;18.08;;;6.78;;
68250;SDS011;55066;51.560;4.642;2023-03-01T08:00:23;17.30;;;6.78;;
68250;SDS011;55066;51.560;4.642;2023-03-01T08:02:50;17.13;;;7.50;;
68250;SDS011;55066;51.560;4.642;2023-03-01T08:05:15;18.67;;;6.63;;
68250;SDS011;55066;51.560;4.642;2023-03-01T08:07:41;18.50;;;7.30;;
68250;SDS011;55066;51.560;4.642;2023-03-01T08:10:07;18.80;;;7.32;;
68250;SDS011;55066;51.560;4.642;2023-03-01T08:12:35;17.30;;;7.28;;
68250;SDS011;55066;51.560;4.642;2023-03-01T08:15:00;17.27;;;7.10;;
68250;SDS011;55066;51.560;4.642;2023-03-01T08:17:26;17.80;;;6.97;;
68250;SDS011;55066;51.560;4.642;2023-03-01T08:19:51;18.77;;;6.87;;
68250;SDS011;55066;51.560;4.642;2023-03-01T08:22:17;14.80;;;6.60;;
68250;SDS011;55066;51.560;4.642;2023-03-01T08:24:43;17.98;;;7.40;;
68250;SDS011;55066;51.560;4.642;2023-03-01T08:27:11;18.52;;;6.57;;
68250;SDS011;55066;51.560;4.642;2023-03-01T08:29:38;18.63;;;7.00;;
68250;SDS011;55066;51.560;4.642;2023-03-01T08:32:04;17.77;;;6.65;;
68250;SDS011;55066;51.560;4.642;2023-03-01T08:34:29;22.80;;;6.90;;
68250;SDS011;55066;51.560;4.642;2023-03-01T08:36:56;17.70;;;6.25;;
68250;SDS011;55066;51.560;4.642;2023-03-01T08:39:22;16.92;;;6.25;;
68250;SDS011;55066;51.560;4.642;2023-03-01T08:41:49;16.30;;;7.10;;
68250;SDS011;55066;51.560;4.642;2023-03-01T08:44:15;15.73;;;6.40;;
68250;SDS011;55066;51.560;4.642;2023-03-01T08:46:44;14.52;;;5.82;;
68250;SDS011;55066;51.560;4.642;2023-03-01T08:49:11;17.30;;;6.28;;
68250;SDS011;55066;51.560;4.642;2023-03-01T08:51:39;17.03;;;6.33;;
68250;SDS011;55066;51.560;4.642;2023-03-01T08:54:15;15.15;;;5.97;;
68250;SDS011;55066;51.560;4.642;2023-03-01T08:56:43;15.40;;;6.47;;
68250;SDS011;55066;51.560;4.642;2023-03-01T08:59:16;12.93;;;5.05;;
68250;SDS011;55066;51.560;4.642;2023-03-01T09:02:03;15.20;;;5.75;;
68250;SDS011;55066;51.560;4.642;2023-03-01T09:04:32;12.50;;;5.60;;
68250;SDS011;55066;51.560;4.642;2023-03-01T09:07:01;11.40;;;4.53;;
68250;SDS011;55066;51.560;4.642;2023-03-01T09:09:27;16.27;;;6.67;;
68250;SDS011;55066;51.560;4.642;2023-03-01T09:11:52;12.65;;;5.38;;
68250;SDS011;55066;51.560;4.642;2023-03-01T09:14:18;14.73;;;4.93;;
68250;SDS011;55066;51.560;4.642;2023-03-01T09:16:44;15.23;;;6.20;;
68250;SDS011;55066;51.560;4.642;2023-03-01T09:19:13;13.80;;;6.15;;
68250;SDS011;55066;51.560;4.642;2023-03-01T09:21:39;14.23;;;5.47;;
68250;SDS011;55066;51.560;4.642;2023-03-01T09:24:17;14.30;;;5.63;;
68250;SDS011;55066;51.560;4.642;2023-03-01T09:26:49;13.52;;;5.00;;
68250;SDS011;55066;51.560;4.642;2023-03-01T09:29:17;15.18;;;5.68;;
68250;SDS011;55066;51.560;4.642;2023-03-01T09:31:43;16.30;;;4.87;;
68250;SDS011;55066;51.560;4.642;2023-03-01T09:34:09;12.13;;;4.95;;
68250;SDS011;55066;51.560;4.642;2023-03-01T09:36:35;12.93;;;5.47;;
68250;SDS011;55066;51.560;4.642;2023-03-01T09:39:01;11.83;;;5.50;;
68250;SDS011;55066;51.560;4.642;2023-03-01T09:42:11;14.77;;;5.63;;
68250;SDS011;55066;51.560;4.642;2023-03-01T09:46:59;10.55;;;4.63;;
68250;SDS011;55066;51.560;4.642;2023-03-01T09:49:27;13.90;;;5.13;;
68250;SDS011;55066;51.560;4.642;2023-03-01T09:51:57;14.03;;;6.07;;
68250;SDS011;55066;51.560;4.642;2023-03-01T09:54:26;13.07;;;5.13;;
68250;SDS011;55066;51.560;4.642;2023-03-01T09:57:06;11.10;;;4.55;;
68250;SDS011;55066;51.560;4.642;2023-03-01T10:10:32;12.18;;;5.15;;
68250;SDS011;55066;51.560;4.642;2023-03-01T10:13:21;8.73;;;4.15;;
68250;SDS011;55066;51.560;4.642;2023-03-01T10:15:54;11.60;;;4.57;;
68250;SDS011;55066;51.560;4.642;2023-03-01T10:18:24;14.20;;;4.67;;
68250;SDS011;55066;51.560;4.642;2023-03-01T10:23:26;11.15;;;5.03;;
68250;SDS011;55066;51.560;4.642;2023-03-01T10:26:00;8.98;;;3.45;;
68250;SDS011;55066;51.560;4.642;2023-03-01T10:28:44;13.75;;;4.30;;
68250;SDS011;55066;51.560;4.642;2023-03-01T10:31:18;9.13;;;3.47;;
68250;SDS011;55066;51.560;4.642;2023-03-01T10:33:48;10.60;;;4.10;;
68250;SDS011;55066;51.560;4.642;2023-03-01T10:36:18;11.93;;;4.78;;
68250;SDS011;55066;51.560;4.642;2023-03-01T10:38:52;13.43;;;3.93;;
68250;SDS011;55066;51.560;4.642;2023-03-01T10:41:19;12.15;;;4.50;;
68250;SDS011;55066;51.560;4.642;2023-03-01T10:43:55;10.70;;;3.75;;
68250;SDS011;55066;51.560;4.642;2023-03-01T10:51:44;9.43;;;3.78;;
68250;SDS011;55066;51.560;4.642;2023-03-01T10:54:20;9.00;;;3.55;;
68250;SDS011;55066;51.560;4.642;2023-03-01T10:56:51;8.70;;;3.10;;
68250;SDS011;55066;51.560;4.642;2023-03-01T10:59:21;11.50;;;3.50;;
68250;SDS011;55066;51.560;4.642;2023-03-01T11:02:01;10.37;;;3.70;;
68250;SDS011;55066;51.560;4.642;2023-03-01T11:04:39;9.55;;;3.88;;
68250;SDS011;55066;51.560;4.642;2023-03-01T11:07:20;9.15;;;3.80;;
68250;SDS011;55066;51.560;4.642;2023-03-01T11:09:45;8.83;;;3.23;;
68250;SDS011;55066;51.560;4.642;2023-03-01T11:12:13;9.50;;;4.15;;
68250;SDS011;55066;51.560;4.642;2023-03-01T11:14:46;10.37;;;4.10;;
68250;SDS011;55066;51.560;4.642;2023-03-01T11:17:31;9.32;;;4.30;;
68250;SDS011;55066;51.560;4.642;2023-03-01T11:22:53;9.63;;;4.07;;
68250;SDS011;55066;51.560;4.642;2023-03-01T11:25:22;9.90;;;4.15;;
68250;SDS011;55066;51.560;4.642;2023-03-01T11:27:52;11.23;;;4.57;;
68250;SDS011;55066;51.560;4.642;2023-03-01T11:30:24;8.52;;;3.60;;
68250;SDS011;55066;51.560;4.642;2023-03-01T11:33:33;7.65;;;3.78;;
68250;SDS011;55066;51.560;4.642;2023-03-01T11:39:44;10.35;;;4.30;;
68250;SDS011;55066;51.560;4.642;2023-03-01T11:42:00;14.63;;;4.80;;
68250;SDS011;55066;51.560;4.642;2023-03-01T11:44:51;10.13;;;4.55;;
68250;SDS011;55066;51.560;4.642;2023-03-01T11:47:32;9.18;;;3.95;;
68250;SDS011;55066;51.560;4.642;2023-03-01T11:50:33;12.15;;;4.68;;
68250;SDS011;55066;51.560;4.642;2023-03-01T11:59:01;11.38;;;4.82;;
68250;SDS011;55066;51.560;4.642;2023-03-01T12:07:00;12.40;;;5.10;;
68250;SDS011;55066;51.560;4.642;2023-03-01T12:17:56;10.10;;;4.68;;
68250;SDS011;55066;51.560;4.642;2023-03-01T12:20:47;10.35;;;4.45;;
68250;SDS011;55066;51.560;4.642;2023-03-01T12:42:31;12.57;;;5.70;;
68250;SDS011;55066;51.560;4.642;2023-03-01T12:50:54;11.27;;;4.57;;
68250;SDS011;55066;51.560;4.642;2023-03-01T12:53:25;12.23;;;5.45;;
68250;SDS011;55066;51.560;4.642;2023-03-01T12:56:12;12.75;;;5.20;;
68250;SDS011;55066;51.560;4.642;2023-03-01T12:58:42;12.18;;;5.13;;
68250;SDS011;55066;51.560;4.642;2023-03-01T13:01:19;11.18;;;5.07;;
68250;SDS011;55066;51.560;4.642;2023-03-01T13:17:47;16.37;;;5.90;;
68250;SDS011;55066;51.560;4.642;2023-03-01T13:20:19;11.80;;;5.72;;
68250;SDS011;55066;51.560;4.642;2023-03-01T13:22:47;12.70;;;5.68;;
68250;SDS011;55066;51.560;4.642;2023-03-01T13:25:24;11.85;;;5.90;;
68250;SDS011;55066;51.560;4.642;2023-03-01T13:27:51;11.40;;;5.43;;
68250;SDS011;55066;51.560;4.642;2023-03-01T13:31:02;14.30;;;6.03;;
68250;SDS011;55066;51.560;4.642;2023-03-01T13:35:55;10.88;;;5.20;;
68250;SDS011;55066;51.560;4.642;2023-03-01T13:44:21;11.73;;;5.55;;
68250;SDS011;55066;51.560;4.642;2023-03-01T13:46:50;11.52;;;5.40;;
68250;SDS011;55066;51.560;4.642;2023-03-01T13:49:18;11.00;;;5.05;;
68250;SDS011;55066;51.560;4.642;2023-03-01T13:51:46;15.68;;;5.60;;
68250;SDS011;55066;51.560;4.642;2023-03-01T13:54:13;11.75;;;5.20;;
68250;SDS011;55066;51.560;4.642;2023-03-01T13:56:42;12.02;;;5.18;;
68250;SDS011;55066;51.560;4.642;2023-03-01T13:59:16;10.68;;;5.03;;
68250;SDS011;55066;51.560;4.642;2023-03-01T14:01:51;13.18;;;5.78;;
68250;SDS011;55066;51.560;4.642;2023-03-01T14:04:29;12.15;;;5.55;;
68250;SDS011;55066;51.560;4.642;2023-03-01T14:07:18;10.13;;;5.45;;
68250;SDS011;55066;51.560;4.642;2023-03-01T14:09:47;11.45;;;4.90;;
68250;SDS011;55066;51.560;4.642;2023-03-01T14:17:49;11.23;;;5.55;;
68250;SDS011;55066;51.560;4.642;2023-03-01T14:20:41;13.15;;;4.70;;
68250;SDS011;55066;51.560;4.642;2023-03-01T14:23:19;11.00;;;4.65;;
68250;SDS011;55066;51.560;4.642;2023-03-01T14:25:57;10.90;;;5.65;;
68250;SDS011;55066;51.560;4.642;2023-03-01T14:28:29;11.30;;;5.03;;
68250;SDS011;55066;51.560;4.642;2023-03-01T14:31:00;11.90;;;6.28;;
68250;SDS011;55066;51.560;4.642;2023-03-01T14:33:28;11.88;;;5.53;;
68250;SDS011;55066;51.560;4.642;2023-03-01T14:38:35;13.88;;;6.10;;
68250;SDS011;55066;51.560;4.642;2023-03-01T14:41:23;11.35;;;5.35;;
68250;SDS011;55066;51.560;4.642;2023-03-01T14:43:55;16.23;;;5.13;;
68250;SDS011;55066;51.560;4.642;2023-03-01T14:46:28;15.02;;;5.68;;
68250;SDS011;55066;51.560;4.642;2023-03-01T14:54:44;12.38;;;4.82;;
68250;SDS011;55066;51.560;4.642;2023-03-01T14:57:17;10.93;;;4.30;;
68250;SDS011;55066;51.560;4.642;2023-03-01T14:59:46;11.95;;;5.43;;
68250;SDS011;55066;51.560;4.642;2023-03-01T15:02:17;11.40;;;4.97;;
68250;SDS011;55066;51.560;4.642;2023-03-01T15:04:48;9.38;;;4.63;;
68250;SDS011;55066;51.560;4.642;2023-03-01T15:07:16;10.57;;;4.88;;
68250;SDS011;55066;51.560;4.642;2023-03-01T15:09:43;10.52;;;4.85;;
68250;SDS011;55066;51.560;4.642;2023-03-01T15:14:52;12.02;;;5.35;;
68250;SDS011;55066;51.560;4.642;2023-03-01T15:17:26;10.40;;;5.25;;
68250;SDS011;55066;51.560;4.642;2023-03-01T15:19:54;10.80;;;5.60;;
68250;SDS011;55066;51.560;4.642;2023-03-01T15:22:20;10.88;;;5.13;;
68250;SDS011;55066;51.560;4.642;2023-03-01T15:24:48;9.38;;;4.63;;
68250;SDS011;55066;51.560;4.642;2023-03-01T15:27:15;10.52;;;5.03;;
68250;SDS011;55066;51.560;4.642;2023-03-01T15:29:53;15.73;;;4.72;;
68250;SDS011;55066;51.560;4.642;2023-03-01T15:32:32;13.90;;;4.97;;
68250;SDS011;55066;51.560;4.642;2023-03-01T15:34:59;11.00;;;4.50;;
68250;SDS011;55066;51.560;4.642;2023-03-01T15:37:46;8.55;;;4.10;;
68250;SDS011;55066;51.560;4.642;2023-03-01T15:43:03;13.30;;;4.95;;
68250;SDS011;55066;51.560;4.642;2023-03-01T15:45:31;9.97;;;4.70;;
68250;SDS011;55066;51.560;4.642;2023-03-01T15:48:13;11.57;;;4.50;;
68250;SDS011;55066;51.560;4.642;2023-03-01T15:50:42;12.20;;;4.50;;
68250;SDS011;55066;51.560;4.642;2023-03-01T15:53:12;10.82;;;4.53;;
68250;SDS011;55066;51.560;4.642;2023-03-01T15:55:40;10.60;;;4.53;;
68250;SDS011;55066;51.560;4.642;2023-03-01T15:58:10;8.93;;;3.93;;
68250;SDS011;55066;51.560;4.642;2023-03-01T16:00:38;11.15;;;4.82;;
68250;SDS011;55066;51.560;4.642;2023-03-01T16:03:05;10.32;;;4.28;;
68250;SDS011;55066;51.560;4.642;2023-03-01T16:05:33;10.23;;;4.60;;
68250;SDS011;55066;51.560;4.642;2023-03-01T16:08:00;9.43;;;4.63;;
68250;SDS011;55066;51.560;4.642;2023-03-01T16:10:25;11.43;;;4.67;;
68250;SDS011;55066;51.560;4.642;2023-03-01T16:12:52;11.80;;;5.05;;
68250;SDS011;55066;51.560;4.642;2023-03-01T16:15:22;9.60;;;4.57;;
68250;SDS011;55066;51.560;4.642;2023-03-01T16:17:49;13.90;;;5.27;;
68250;SDS011;55066;51.560;4.642;2023-03-01T16:20:20;9.52;;;4.68;;
68250;SDS011;55066;51.560;4.642;2023-03-01T16:22:46;11.18;;;4.93;;
68250;SDS011;55066;51.560;4.642;2023-03-01T16:25:13;13.27;;;5.23;;
68250;SDS011;55066;51.560;4.642;2023-03-01T16:27:44;11.80;;;5.20;;
68250;SDS011;55066;51.560;4.642;2023-03-01T16:30:11;10.25;;;5.30;;
68250;SDS011;55066;51.560;4.642;2023-03-01T16:32:39;12.63;;;5.15;;
68250;SDS011;55066;51.560;4.642;2023-03-01T16:35:09;11.27;;;5.25;;
68250;SDS011;55066;51.560;4.642;2023-03-01T16:37:35;10.30;;;4.90;;
68250;SDS011;55066;51.560;4.642;2023-03-01T16:40:02;11.38;;;4.95;;
68250;SDS011;55066;51.560;4.642;2023-03-01T16:42:38;12.43;;;5.03;;
68250;SDS011;55066;51.560;4.642;2023-03-01T16:45:06;13.27;;;5.50;;
68250;SDS011;55066;51.560;4.642;2023-03-01T16:47:32;10.13;;;4.93;;
68250;SDS011;55066;51.560;4.642;2023-03-01T16:50:00;12.52;;;5.13;;
68250;SDS011;55066;51.560;4.642;2023-03-01T16:52:26;14.05;;;5.65;;
68250;SDS011;55066;51.560;4.642;2023-03-01T16:54:51;9.23;;;4.07;;
68250;SDS011;55066;51.560;4.642;2023-03-01T16:57:17;9.87;;;4.67;;
68250;SDS011;55066;51.560;4.642;2023-03-01T16:59:43;10.32;;;4.90;;
68250;SDS011;55066;51.560;4.642;2023-03-01T17:02:09;10.77;;;4.90;;
68250;SDS011;55066;51.560;4.642;2023-03-01T17:04:37;10.45;;;4.88;;
68250;SDS011;55066;51.560;4.642;2023-03-01T17:07:03;12.82;;;4.72;;
68250;SDS011;55066;51.560;4.642;2023-03-01T17:09:29;10.73;;;5.37;;
68250;SDS011;55066;51.560;4.642;2023-03-01T17:11:54;11.90;;;5.10;;